createdAt,value
2022-11-02T00:01:37.010Z,9.07
2022-11-02T00:06:41.895Z,8.99
2022-11-02T00:11:46.668Z,8.92
2022-11-02T00:16:54.607Z,8.97
2022-11-02T00:22:02.014Z,8.99
2022-11-02T00:27:06.979Z,9.32
2022-11-02T00:32:14.296Z,8.68
2022-11-02T00:37:19.080Z,8.50
2022-11-02T00:42:24.061Z,8.61
2022-11-02T00:47:31.757Z,8.59
2022-11-02T00:52:36.832Z,8.31
2022-11-02T00:57:42.735Z,8.16
2022-11-02T01:02:50.229Z,8.11
2022-11-02T01:07:55.841Z,8.09
2022-11-02T01:13:00.722Z,8.21
2022-11-02T01:18:08.612Z,8.23
2022-11-02T01:23:13.520Z,8.38
2022-11-02T01:28:19.034Z,8.15
2022-11-02T01:33:26.474Z,7.93
2022-11-02T01:38:33.933Z,8.03
2022-11-02T01:43:39.776Z,7.98
2022-11-02T01:48:50.630Z,8.10
2022-11-02T01:53:57.848Z,7.90
2022-11-02T01:59:08.360Z,7.81
2022-11-02T02:04:16.167Z,7.83
2022-11-02T02:09:22.362Z,7.79
2022-11-02T02:14:27.639Z,7.47
2022-11-02T02:19:44.337Z,7.44
2022-11-02T02:25:00.254Z,7.38
2022-11-02T02:30:10.697Z,7.65
2022-11-02T02:35:27.441Z,7.79
2022-11-02T02:40:38.356Z,7.43
2022-11-02T02:45:49.713Z,7.37
2022-11-02T02:50:59.852Z,7.26
2022-11-02T02:56:07.064Z,7.21
2022-11-02T03:01:19.778Z,7.20
2022-11-02T03:06:29.102Z,7.46
2022-11-02T03:11:36.858Z,7.32
2022-11-02T03:17:05.002Z,7.49
2022-11-02T03:22:20.999Z,7.11
2022-11-02T03:27:37.485Z,7.08
2022-11-02T03:32:56.461Z,6.94
2022-11-02T03:38:05.247Z,6.91
2022-11-02T03:43:11.272Z,6.89
2022-11-02T03:48:22.084Z,7.09
2022-11-02T03:53:37.211Z,7.01
2022-11-02T03:58:42.139Z,7.07
2022-11-02T04:03:52.430Z,7.04
2022-11-02T04:08:57.716Z,6.95
2022-11-02T04:14:15.505Z,6.88
2022-11-02T04:19:30.883Z,6.74
2022-11-02T04:24:51.608Z,7.10
2022-11-02T04:29:57.228Z,7.06
2022-11-02T04:35:07.610Z,7.39
2022-11-02T04:40:15.538Z,7.45
2022-11-02T04:45:22.087Z,7.23
2022-11-02T04:50:33.854Z,8.29
2022-11-02T04:55:40.218Z,8.30
2022-11-02T05:00:45.785Z,8.70
2022-11-02T05:05:59.567Z,8.46
2022-11-02T05:11:05.512Z,7.28
2022-11-02T05:16:22.223Z,7.38
2022-11-02T05:21:32.900Z,7.79
2022-11-02T05:26:37.926Z,7.63
2022-11-02T05:31:43.197Z,6.99
2022-11-02T05:36:51.321Z,7.31
2022-11-02T05:41:57.213Z,7.12
2022-11-02T05:47:02.236Z,8.19
2022-11-02T05:52:10.721Z,8.60
2022-11-02T05:57:17.197Z,8.01
2022-11-02T06:02:24.748Z,8.50
2022-11-02T06:07:33.105Z,8.89
2022-11-02T06:12:38.421Z,9.12
2022-11-02T06:17:45.892Z,8.87
2022-11-02T06:22:53.438Z,9.09
2022-11-02T06:28:02.726Z,9.32
2022-11-02T06:33:11.827Z,9.50
2022-11-02T06:38:27.380Z,9.79
2022-11-02T06:43:32.623Z,9.98
2022-11-02T06:48:37.521Z,10.28
2022-11-02T06:54:02.242Z,10.56
2022-11-02T06:59:13.342Z,10.71
2022-11-02T07:04:18.440Z,10.86
2022-11-02T07:09:25.906Z,10.76
2022-11-02T07:14:30.724Z,10.93
2022-11-02T07:19:35.862Z,10.79
2022-11-02T07:24:46.984Z,10.59
2022-11-02T07:29:52.308Z,10.54
2022-11-02T07:34:57.210Z,10.41
2022-11-02T07:40:04.907Z,10.52
2022-11-02T07:45:12.945Z,10.52
2022-11-02T07:50:23.862Z,10.66
2022-11-02T07:55:36.051Z,10.76
2022-11-02T08:00:46.932Z,10.93
2022-11-02T08:05:52.387Z,11.09
2022-11-02T08:11:10.120Z,11.46
2022-11-02T08:16:16.025Z,11.63
2022-11-02T08:21:20.915Z,12.47
2022-11-02T08:26:55.719Z,14.43
2022-11-02T08:32:04.415Z,13.21
2022-11-02T08:37:11.218Z,13.43
2022-11-02T08:42:22.885Z,16.65
2022-11-02T08:47:27.910Z,18.10
2022-11-02T08:52:47.812Z,18.40
2022-11-02T08:57:59.777Z,17.87
2022-11-02T09:03:08.367Z,18.44
2022-11-02T09:08:16.959Z,18.35
2022-11-02T09:13:25.722Z,18.69
2022-11-02T09:18:34.445Z,18.33
2022-11-02T09:23:39.335Z,18.93
2022-11-02T09:28:46.826Z,18.56
2022-11-02T09:33:51.967Z,19.21
2022-11-02T09:38:57.087Z,16.45
2022-11-02T09:44:14.399Z,15.50
2022-11-02T09:49:23.421Z,15.71
2022-11-02T09:54:32.454Z,15.62
2022-11-02T09:59:40.753Z,15.52
2022-11-02T10:05:03.547Z,14.95
2022-11-02T10:10:16.454Z,14.89
2022-11-02T10:15:28.881Z,14.35
2022-11-02T10:20:40.767Z,14.48
2022-11-02T10:25:45.817Z,15.41
2022-11-02T10:30:55.745Z,15.63
2022-11-02T10:36:28.573Z,16.33
2022-11-02T10:41:45.268Z,17.09
2022-11-02T10:47:06.742Z,16.78
2022-11-02T10:52:18.339Z,16.44
2022-11-02T10:57:28.386Z,16.41
2022-11-02T11:02:36.159Z,15.74
2022-11-02T11:07:42.311Z,15.52
2022-11-02T11:12:47.430Z,16.14
2022-11-02T11:23:25.403Z,16.08
2022-11-02T11:28:33.780Z,16.06
2022-11-02T11:33:51.944Z,16.51
2022-11-02T11:39:00.575Z,16.25
2022-11-02T11:44:07.748Z,15.90
2022-11-02T11:50:02.923Z,16.85
2022-11-02T11:55:00.158Z,17.13
2022-11-02T12:00:28.992Z,17.17
2022-11-02T12:05:50.497Z,17.04
2022-11-02T12:11:09.522Z,17.92
2022-11-02T12:16:21.484Z,17.66
2022-11-02T12:21:47.142Z,17.67
2022-11-02T12:27:12.552Z,16.37
2022-11-02T12:32:35.199Z,16.05
2022-11-02T12:38:02.166Z,15.78
2022-11-02T12:43:29.221Z,15.42
2022-11-02T12:48:45.219Z,16.05
2022-11-02T12:53:58.354Z,17.14
2022-11-02T12:59:03.847Z,16.50
2022-11-02T13:04:17.443Z,16.83
2022-11-02T13:09:33.746Z,16.58
2022-11-02T13:14:43.515Z,16.65
2022-11-02T13:19:53.003Z,16.47
2022-11-02T13:25:09.149Z,16.55
2022-11-02T13:30:20.375Z,16.60
2022-11-02T13:35:32.461Z,16.70
2022-11-02T13:40:46.299Z,16.70
2022-11-02T13:46:04.068Z,16.41
2022-11-02T13:51:19.449Z,16.21
2022-11-02T13:56:30.932Z,15.47
2022-11-02T14:01:39.071Z,16.04
2022-11-02T14:06:56.589Z,16.06
2022-11-02T14:12:30.339Z,15.95
2022-11-02T14:18:15.561Z,16.16
2022-11-02T14:23:41.194Z,15.68
2022-11-02T14:28:51.086Z,15.73
2022-11-02T14:34:13.181Z,15.78
2022-11-02T14:39:30.176Z,15.55
2022-11-02T14:45:20.632Z,15.22
2022-11-02T14:50:29.667Z,15.17
2022-11-02T14:55:37.763Z,15.12
2022-11-02T15:01:01.437Z,15.04
2022-11-02T15:06:19.462Z,15.19
2022-11-02T15:11:48.931Z,14.55
2022-11-02T15:17:07.151Z,14.61
2022-11-02T15:22:39.284Z,14.62
2022-11-02T15:27:47.266Z,14.61
2022-11-02T15:33:01.887Z,14.21
2022-11-02T15:38:17.586Z,14.13
2022-11-02T15:43:45.094Z,14.18
2022-11-02T15:49:00.226Z,14.28
2022-11-02T15:54:22.844Z,14.09
2022-11-02T15:59:51.038Z,14.06
2022-11-02T16:05:03.869Z,13.77
2022-11-02T16:10:30.296Z,13.94
2022-11-02T16:15:35.255Z,13.73
2022-11-02T16:20:42.992Z,13.68
2022-11-02T16:25:50.374Z,13.31
2022-11-02T16:31:08.723Z,13.31
2022-11-02T16:36:25.788Z,13.36
2022-11-02T16:41:32.999Z,13.31
2022-11-02T16:46:48.460Z,13.27
2022-11-02T16:52:03.915Z,12.96
2022-11-02T16:57:15.845Z,12.69
2022-11-02T17:02:21.585Z,13.16
2022-11-02T17:07:34.484Z,13.04
2022-11-02T17:12:47.891Z,12.92
2022-11-02T17:17:53.550Z,12.64
2022-11-02T17:23:05.391Z,12.46
2022-11-02T17:28:47.597Z,12.56
2022-11-02T17:33:53.459Z,12.39
2022-11-02T17:39:05.704Z,12.35
2022-11-02T17:44:22.014Z,12.33
2022-11-02T17:49:27.308Z,12.23
2022-11-02T17:54:34.785Z,12.05
2022-11-02T17:59:39.643Z,12.03
2022-11-02T18:04:45.957Z,12.04
2022-11-02T18:09:54.745Z,12.13
2022-11-02T18:15:07.153Z,12.20
2022-11-02T18:20:13.403Z,12.05
2022-11-02T18:25:25.135Z,11.97
2022-11-02T18:30:32.641Z,12.05
2022-11-02T18:35:39.625Z,11.95
2022-11-02T18:40:47.284Z,11.90
2022-11-02T18:45:52.138Z,11.22
2022-11-02T18:50:56.947Z,10.78
2022-11-02T18:56:09.680Z,10.58
2022-11-02T19:01:16.293Z,10.50
2022-11-02T19:06:34.264Z,10.65
2022-11-02T19:11:41.750Z,10.53
2022-11-02T19:16:48.293Z,9.64
2022-11-02T19:21:56.111Z,9.01
2022-11-02T19:27:03.977Z,9.08
2022-11-02T19:32:09.284Z,9.12
2022-11-02T19:37:14.838Z,8.91
2022-11-02T19:42:22.731Z,8.99
2022-11-02T19:47:28.264Z,8.79
2022-11-02T19:52:33.702Z,8.59
2022-11-02T19:57:41.707Z,8.56
2022-11-02T20:02:47.085Z,8.51
2022-11-02T20:07:55.282Z,8.55
2022-11-02T20:13:03.081Z,8.48
2022-11-02T20:18:19.613Z,8.35
2022-11-02T20:23:26.624Z,8.42
2022-11-02T20:28:35.085Z,8.13
2022-11-02T20:33:41.161Z,7.90
2022-11-02T20:38:46.432Z,7.70
2022-11-02T20:43:55.869Z,7.78
2022-11-02T20:49:08.660Z,7.67
2022-11-02T20:54:29.557Z,7.51
2022-11-02T20:59:39.418Z,7.59
2022-11-02T21:04:44.294Z,7.51
2022-11-02T21:09:51.584Z,7.37
2022-11-02T21:15:01.625Z,7.27
2022-11-02T21:25:34.418Z,7.04
2022-11-02T21:30:42.034Z,7.02
2022-11-02T21:35:46.848Z,7.00
2022-11-02T21:40:51.667Z,6.76
2022-11-02T21:46:00.897Z,6.93
2022-11-02T21:51:08.045Z,6.84
2022-11-02T21:56:15.529Z,6.71
2022-11-02T22:01:38.693Z,6.66
2022-11-02T22:06:44.190Z,6.55
2022-11-02T22:12:09.426Z,6.39
2022-11-02T22:17:43.236Z,6.50
2022-11-02T22:22:41.832Z,6.38
2022-11-02T22:27:46.636Z,6.15
2022-11-02T22:32:54.179Z,6.16
2022-11-02T22:38:11.414Z,6.07
2022-11-02T22:43:16.179Z,5.93
2022-11-02T22:48:23.596Z,5.90
2022-11-02T22:53:30.241Z,5.92
2022-11-02T22:58:35.901Z,5.86
2022-11-02T23:03:43.312Z,5.90
2022-11-02T23:08:48.877Z,6.00
2022-11-02T23:13:57.677Z,5.81
2022-11-02T23:19:25.289Z,5.85
2022-11-02T23:24:43.960Z,5.86
2022-11-02T23:30:01.230Z,5.63
2022-11-02T23:35:40.944Z,5.57
2022-11-02T23:40:50.968Z,5.54
2022-11-02T23:45:55.811Z,5.62
2022-11-02T23:51:20.154Z,5.52
2022-11-02T23:56:38.975Z,5.16
